sensor_id;sensor_type;location;lat;lon;timestamp;pressure;altitude;pressure_sealevel;temperature;humidity
64644;BME280;51056;50.330;7.914;2022-10-30T00:01:18;101013.41;;;12.09;95.34
64644;BME280;51056;50.330;7.914;2022-10-30T00:04:21;101013.75;;;12.03;95.89
64644;BME280;51056;50.330;7.914;2022-10-30T00:07:27;101013.91;;;12.00;95.69
64644;BME280;51056;50.330;7.914;2022-10-30T00:10:33;101004.41;;;11.97;96.02
64644;BME280;51056;50.330;7.914;2022-10-30T00:13:42;101003.88;;;11.91;96.10
64644;BME280;51056;50.330;7.914;2022-10-30T00:16:46;101001.00;;;11.95;95.75
64644;BME280;51056;50.330;7.914;2022-10-30T00:19:50;100993.00;;;11.98;95.72
64644;BME280;51056;50.330;7.914;2022-10-30T00:22:54;100992.16;;;11.98;95.61
64644;BME280;51056;50.330;7.914;2022-10-30T00:26:02;100994.00;;;11.96;95.48
64644;BME280;51056;50.330;7.914;2022-10-30T00:29:06;100990.91;;;12.05;95.12
64644;BME280;51056;50.330;7.914;2022-10-30T00:32:11;100991.91;;;12.02;95.36
64644;BME280;51056;50.330;7.914;2022-10-30T00:35:15;100995.44;;;11.84;96.57
64644;BME280;51056;50.330;7.914;2022-10-30T00:38:22;100995.63;;;11.98;95.64
64644;BME280;51056;50.330;7.914;2022-10-30T00:41:25;100996.75;;;11.93;95.88
64644;BME280;51056;50.330;7.914;2022-10-30T00:44:36;100991.75;;;12.05;95.47
64644;BME280;51056;50.330;7.914;2022-10-30T00:47:48;100989.50;;;12.15;95.02
64644;BME280;51056;50.330;7.914;2022-10-30T00:50:53;100988.75;;;11.96;95.90
64644;BME280;51056;50.330;7.914;2022-10-30T00:53:58;100991.75;;;12.05;95.55
64644;BME280;51056;50.330;7.914;2022-10-30T00:57:05;100984.81;;;12.04;95.49
64644;BME280;51056;50.330;7.914;2022-10-30T01:00:11;100985.44;;;12.09;95.79
64644;BME280;51056;50.330;7.914;2022-10-30T01:03:15;100993.47;;;12.06;96.10
64644;BME280;51056;50.330;7.914;2022-10-30T01:06:23;100989.22;;;12.04;96.52
64644;BME280;51056;50.330;7.914;2022-10-30T01:09:30;100988.38;;;12.03;96.05
64644;BME280;51056;50.330;7.914;2022-10-30T01:12:34;100989.06;;;12.07;96.54
64644;BME280;51056;50.330;7.914;2022-10-30T01:15:55;100986.34;;;12.08;96.58
64644;BME280;51056;50.330;7.914;2022-10-30T01:19:13;101000.22;;;11.93;98.11
64644;BME280;51056;50.330;7.914;2022-10-30T01:32:40;100996.75;;;11.93;98.20
64644;BME280;51056;50.330;7.914;2022-10-30T01:36:00;101009.03;;;11.92;98.39
64644;BME280;51056;50.330;7.914;2022-10-30T01:39:12;101009.13;;;11.91;98.22
64644;BME280;51056;50.330;7.914;2022-10-30T01:42:53;101004.25;;;12.00;97.98
64644;BME280;51056;50.330;7.914;2022-10-30T01:53:02;101008.69;;;11.81;99.09
64644;BME280;51056;50.330;7.914;2022-10-30T01:56:45;101013.06;;;11.80;99.22
64644;BME280;51056;50.330;7.914;2022-10-30T02:00:06;101008.97;;;11.94;99.10
64644;BME280;51056;50.330;7.914;2022-10-30T02:03:16;101018.31;;;11.80;99.70
64644;BME280;51056;50.330;7.914;2022-10-30T02:06:22;101016.00;;;11.74;100.00
64644;BME280;51056;50.330;7.914;2022-10-30T02:09:28;101016.75;;;11.76;100.00
64644;BME280;51056;50.330;7.914;2022-10-30T02:12:32;101016.75;;;11.76;100.00
64644;BME280;51056;50.330;7.914;2022-10-30T02:15:36;101013.78;;;11.84;100.00
64644;BME280;51056;50.330;7.914;2022-10-30T02:18:41;101008.03;;;11.95;99.06
64644;BME280;51056;50.330;7.914;2022-10-30T02:21:45;101001.59;;;11.83;99.75
64644;BME280;51056;50.330;7.914;2022-10-30T02:24:49;101008.16;;;11.74;100.00
64644;BME280;51056;50.330;7.914;2022-10-30T02:27:54;101009.00;;;11.75;100.00
64644;BME280;51056;50.330;7.914;2022-10-30T02:30:58;101011.34;;;11.98;99.12
64644;BME280;51056;50.330;7.914;2022-10-30T02:34:02;101019.59;;;11.91;98.82
64644;BME280;51056;50.330;7.914;2022-10-30T02:37:06;101010.91;;;11.90;98.43
64644;BME280;51056;50.330;7.914;2022-10-30T02:40:10;101020.16;;;11.78;98.96
64644;BME280;51056;50.330;7.914;2022-10-30T02:43:14;101010.13;;;11.88;98.36
64644;BME280;51056;50.330;7.914;2022-10-30T02:46:19;101003.88;;;11.91;98.18
64644;BME280;51056;50.330;7.914;2022-10-30T02:49:22;100997.84;;;11.89;98.64
64644;BME280;51056;50.330;7.914;2022-10-30T02:52:28;101004.88;;;11.88;98.26
64644;BME280;51056;50.330;7.914;2022-10-30T02:55:32;100997.16;;;11.85;98.13
64644;BME280;51056;50.330;7.914;2022-10-30T02:58:35;100993.69;;;11.84;98.55
64644;BME280;51056;50.330;7.914;2022-10-30T03:01:39;100995.50;;;11.82;98.69
64644;BME280;51056;50.330;7.914;2022-10-30T03:04:42;100993.53;;;11.88;98.82
64644;BME280;51056;50.330;7.914;2022-10-30T03:07:47;100988.59;;;11.81;99.71
64644;BME280;51056;50.330;7.914;2022-10-30T03:10:50;100992.63;;;11.89;99.07
64644;BME280;51056;50.330;7.914;2022-10-30T03:13:56;100990.56;;;11.76;99.90
64644;BME280;51056;50.330;7.914;2022-10-30T03:16:59;100989.03;;;11.72;100.00
64644;BME280;51056;50.330;7.914;2022-10-30T03:20:03;101002.75;;;11.77;99.48
64644;BME280;51056;50.330;7.914;2022-10-30T03:23:07;100995.66;;;11.79;99.09
64644;BME280;51056;50.330;7.914;2022-10-30T03:26:10;100993.97;;;11.78;99.49
64644;BME280;51056;50.330;7.914;2022-10-30T03:29:22;100998.97;;;11.83;99.21
64644;BME280;51056;50.330;7.914;2022-10-30T03:32:25;100989.72;;;11.76;99.98
64644;BME280;51056;50.330;7.914;2022-10-30T03:35:30;100988.72;;;11.78;99.46
64644;BME280;51056;50.330;7.914;2022-10-30T03:38:34;100985.19;;;11.79;99.07
64644;BME280;51056;50.330;7.914;2022-10-30T03:41:39;100986.72;;;11.83;98.86
64644;BME280;51056;50.330;7.914;2022-10-30T03:44:44;100983.06;;;11.88;98.28
64644;BME280;51056;50.330;7.914;2022-10-30T03:47:48;100976.22;;;11.83;98.05
64644;BME280;51056;50.330;7.914;2022-10-30T03:50:56;100981.03;;;11.75;98.24
64644;BME280;51056;50.330;7.914;2022-10-30T03:54:00;100974.69;;;11.79;97.80
64644;BME280;51056;50.330;7.914;2022-10-30T03:57:03;100974.84;;;11.76;97.65
64644;BME280;51056;50.330;7.914;2022-10-30T04:00:17;100974.16;;;11.73;98.01
64644;BME280;51056;50.330;7.914;2022-10-30T04:03:33;100979.78;;;11.65;98.61
64644;BME280;51056;50.330;7.914;2022-10-30T04:06:37;100976.72;;;11.74;98.63
64644;BME280;51056;50.330;7.914;2022-10-30T04:09:42;100973.47;;;11.69;99.51
64644;BME280;51056;50.330;7.914;2022-10-30T04:12:46;100976.78;;;11.73;99.32
64644;BME280;51056;50.330;7.914;2022-10-30T04:15:50;100974.69;;;11.62;99.97
64644;BME280;51056;50.330;7.914;2022-10-30T04:18:56;100970.00;;;11.69;99.29
64644;BME280;51056;50.330;7.914;2022-10-30T04:21:59;100981.53;;;11.64;100.00
64644;BME280;51056;50.330;7.914;2022-10-30T04:25:04;100976.38;;;11.63;100.00
64644;BME280;51056;50.330;7.914;2022-10-30T04:28:09;100981.78;;;11.60;99.12
64644;BME280;51056;50.330;7.914;2022-10-30T04:31:14;100972.78;;;11.66;98.93
64644;BME280;51056;50.330;7.914;2022-10-30T04:34:17;100968.84;;;11.74;99.06
64644;BME280;51056;50.330;7.914;2022-10-30T04:37:21;100978.91;;;11.64;100.00
64644;BME280;51056;50.330;7.914;2022-10-30T04:40:29;100972.00;;;11.63;100.00
64644;BME280;51056;50.330;7.914;2022-10-30T04:43:37;100967.91;;;11.58;99.51
64644;BME280;51056;50.330;7.914;2022-10-30T04:46:43;100970.50;;;11.58;100.00
64644;BME280;51056;50.330;7.914;2022-10-30T04:49:48;100965.28;;;11.58;100.00
64644;BME280;51056;50.330;7.914;2022-10-30T04:53:05;100971.53;;;11.55;100.00
64644;BME280;51056;50.330;7.914;2022-10-30T04:56:09;100972.00;;;11.63;100.00
64644;BME280;51056;50.330;7.914;2022-10-30T04:59:15;100967.00;;;11.59;99.42
64644;BME280;51056;50.330;7.914;2022-10-30T05:02:19;100965.81;;;11.47;98.79
64644;BME280;51056;50.330;7.914;2022-10-30T05:05:23;100971.44;;;11.39;98.36
64644;BME280;51056;50.330;7.914;2022-10-30T05:08:27;100968.66;;;11.43;98.16
64644;BME280;51056;50.330;7.914;2022-10-30T05:11:31;100965.94;;;11.27;100.00
64644;BME280;51056;50.330;7.914;2022-10-30T05:14:35;100969.91;;;11.16;100.00
64644;BME280;51056;50.330;7.914;2022-10-30T05:17:39;100977.47;;;11.23;100.00
64644;BME280;51056;50.330;7.914;2022-10-30T05:20:46;100986.53;;;11.15;100.00
64644;BME280;51056;50.330;7.914;2022-10-30T05:23:49;100973.69;;;11.11;100.00
64644;BME280;51056;50.330;7.914;2022-10-30T05:26:55;100977.41;;;11.24;99.22
64644;BME280;51056;50.330;7.914;2022-10-30T05:30:00;100981.72;;;11.25;99.31
64644;BME280;51056;50.330;7.914;2022-10-30T05:33:06;100980.03;;;11.24;99.95
64644;BME280;51056;50.330;7.914;2022-10-30T05:36:13;100982.34;;;11.30;99.60
64644;BME280;51056;50.330;7.914;2022-10-30T05:39:18;100989.97;;;11.35;99.23
64644;BME280;51056;50.330;7.914;2022-10-30T05:42:28;100985.56;;;11.35;98.74
64644;BME280;51056;50.330;7.914;2022-10-30T05:45:35;100985.25;;;11.24;99.31
64644;BME280;51056;50.330;7.914;2022-10-30T05:48:44;100984.63;;;11.19;98.60
64644;BME280;51056;50.330;7.914;2022-10-30T05:51:48;100987.09;;;11.22;98.79
64644;BME280;51056;50.330;7.914;2022-10-30T05:54:52;100988.47;;;11.12;98.79
64644;BME280;51056;50.330;7.914;2022-10-30T05:58:14;100980.38;;;11.16;98.47
64644;BME280;51056;50.330;7.914;2022-10-30T06:01:21;100989.09;;;11.17;98.00
64644;BME280;51056;50.330;7.914;2022-10-30T06:04:29;100989.84;;;11.19;97.75
64644;BME280;51056;50.330;7.914;2022-10-30T06:07:35;100995.81;;;11.04;97.93
64644;BME280;51056;50.330;7.914;2022-10-30T06:10:39;100991.16;;;11.10;98.03
64644;BME280;51056;50.330;7.914;2022-10-30T06:13:49;101000.75;;;11.10;97.72
64644;BME280;51056;50.330;7.914;2022-10-30T06:17:23;101005.84;;;11.13;97.50
64644;BME280;51056;50.330;7.914;2022-10-30T06:20:36;101008.59;;;11.10;97.38
64644;BME280;51056;50.330;7.914;2022-10-30T06:23:58;101006.69;;;11.13;97.11
64644;BME280;51056;50.330;7.914;2022-10-30T06:27:09;101001.78;;;11.07;97.15
64644;BME280;51056;50.330;7.914;2022-10-30T06:30:13;100999.75;;;11.12;96.91
64644;BME280;51056;50.330;7.914;2022-10-30T06:33:20;101006.25;;;11.23;95.95
64644;BME280;51056;50.330;7.914;2022-10-30T06:36:27;101007.56;;;11.14;96.71
64644;BME280;51056;50.330;7.914;2022-10-30T06:39:31;101008.75;;;11.07;97.03
64644;BME280;51056;50.330;7.914;2022-10-30T06:42:53;101008.84;;;11.05;97.66
64644;BME280;51056;50.330;7.914;2022-10-30T06:46:13;101010.38;;;11.09;97.68
64644;BME280;51056;50.330;7.914;2022-10-30T06:49:19;101015.19;;;11.00;99.20
64644;BME280;51056;50.330;7.914;2022-10-30T06:52:23;101020.56;;;10.97;99.65
64644;BME280;51056;50.330;7.914;2022-10-30T06:55:29;101012.09;;;10.91;98.94
64644;BME280;51056;50.330;7.914;2022-10-30T06:58:57;101014.75;;;10.90;97.78
64644;BME280;51056;50.330;7.914;2022-10-30T07:02:13;101002.38;;;10.93;96.73
64644;BME280;51056;50.330;7.914;2022-10-30T07:05:43;101006.28;;;11.04;96.70
64644;BME280;51056;50.330;7.914;2022-10-30T07:08:50;101001.34;;;10.98;97.71
64644;BME280;51056;50.330;7.914;2022-10-30T07:11:54;100999.50;;;11.00;97.23
64644;BME280;51056;50.330;7.914;2022-10-30T07:15:04;101003.66;;;11.04;97.17
64644;BME280;51056;50.330;7.914;2022-10-30T07:18:15;101005.66;;;11.17;96.52
64644;BME280;51056;50.330;7.914;2022-10-30T07:21:19;101013.91;;;11.08;98.30
64644;BME280;51056;50.330;7.914;2022-10-30T07:24:22;101014.47;;;11.15;98.65
64644;BME280;51056;50.330;7.914;2022-10-30T07:27:53;101010.94;;;11.16;99.36
64644;BME280;51056;50.330;7.914;2022-10-30T07:31:09;101015.13;;;11.01;99.26
64644;BME280;51056;50.330;7.914;2022-10-30T07:34:30;101016.31;;;11.13;98.88
64644;BME280;51056;50.330;7.914;2022-10-30T07:38:05;101014.63;;;11.12;97.50
64644;BME280;51056;50.330;7.914;2022-10-30T07:41:27;101006.41;;;11.20;97.44
64644;BME280;51056;50.330;7.914;2022-10-30T07:44:51;101018.44;;;11.24;97.05
64644;BME280;51056;50.330;7.914;2022-10-30T07:48:06;101015.31;;;11.15;96.70
64644;BME280;51056;50.330;7.914;2022-10-30T07:51:17;101015.19;;;11.18;96.25
64644;BME280;51056;50.330;7.914;2022-10-30T07:54:20;101014.81;;;11.26;96.95
64644;BME280;51056;50.330;7.914;2022-10-30T07:57:24;101021.53;;;11.32;96.17
64644;BME280;51056;50.330;7.914;2022-10-30T08:00:47;101027.19;;;11.41;95.81
64644;BME280;51056;50.330;7.914;2022-10-30T08:04:01;101029.88;;;11.40;95.63
64644;BME280;51056;50.330;7.914;2022-10-30T08:07:09;101025.06;;;11.67;94.39
64644;BME280;51056;50.330;7.914;2022-10-30T08:10:13;101015.03;;;11.58;94.17
64644;BME280;51056;50.330;7.914;2022-10-30T08:13:16;101022.56;;;11.10;98.33
64644;BME280;51056;50.330;7.914;2022-10-30T08:16:22;101018.09;;;10.93;100.00
64644;BME280;51056;50.330;7.914;2022-10-30T08:19:30;101024.09;;;10.96;100.00
64644;BME280;51056;50.330;7.914;2022-10-30T08:22:42;101021.31;;;10.61;100.00
64644;BME280;51056;50.330;7.914;2022-10-30T08:25:46;101022.25;;;10.60;100.00
64644;BME280;51056;50.330;7.914;2022-10-30T08:28:51;101031.16;;;11.12;100.00
64644;BME280;51056;50.330;7.914;2022-10-30T08:31:54;101026.78;;;11.13;100.00
64644;BME280;51056;50.330;7.914;2022-10-30T08:34:58;101021.41;;;11.16;100.00
64644;BME280;51056;50.330;7.914;2022-10-30T08:38:02;101016.56;;;11.45;100.00
64644;BME280;51056;50.330;7.914;2022-10-30T08:41:06;101018.44;;;11.60;100.00
64644;BME280;51056;50.330;7.914;2022-10-30T08:44:54;101010.44;;;11.63;100.00
64644;BME280;51056;50.330;7.914;2022-10-30T08:48:32;101018.31;;;11.80;100.00
64644;BME280;51056;50.330;7.914;2022-10-30T08:51:37;101013.66;;;11.87;99.86
64644;BME280;51056;50.330;7.914;2022-10-30T08:54:45;101018.16;;;11.83;99.42
64644;BME280;51056;50.330;7.914;2022-10-30T08:57:48;101018.81;;;11.89;99.18
64644;BME280;51056;50.330;7.914;2022-10-30T09:00:52;101020.44;;;11.91;98.99
64644;BME280;51056;50.330;7.914;2022-10-30T09:04:14;101013.81;;;12.01;99.69
64644;BME280;51056;50.330;7.914;2022-10-30T09:07:55;101009.19;;;11.89;100.00
64644;BME280;51056;50.330;7.914;2022-10-30T09:11:22;101011.72;;;12.08;100.00
64644;BME280;51056;50.330;7.914;2022-10-30T09:14:25;101004.38;;;12.32;99.22
64644;BME280;51056;50.330;7.914;2022-10-30T09:17:29;101006.00;;;12.17;98.12
64644;BME280;51056;50.330;7.914;2022-10-30T09:20:32;101006.53;;;12.24;98.29
64644;BME280;51056;50.330;7.914;2022-10-30T09:23:35;101015.34;;;12.23;98.25
64644;BME280;51056;50.330;7.914;2022-10-30T09:26:59;101003.50;;;12.31;98.10
64644;BME280;51056;50.330;7.914;2022-10-30T09:30:04;101003.41;;;12.50;98.05
64644;BME280;51056;50.330;7.914;2022-10-30T09:33:19;101008.84;;;12.63;98.75
64644;BME280;51056;50.330;7.914;2022-10-30T09:36:48;101009.47;;;12.68;99.18
64644;BME280;51056;50.330;7.914;2022-10-30T09:39:53;101003.63;;;12.79;98.69
64644;BME280;51056;50.330;7.914;2022-10-30T09:50:36;101001.78;;;12.97;96.51
64644;BME280;51056;50.330;7.914;2022-10-30T09:54:16;101004.16;;;13.01;96.77
64644;BME280;51056;50.330;7.914;2022-10-30T10:00:38;101005.72;;;13.21;97.27
64644;BME280;51056;50.330;7.914;2022-10-30T10:04:07;101004.00;;;13.20;96.60
64644;BME280;51056;50.330;7.914;2022-10-30T10:07:30;101002.13;;;13.22;97.20
64644;BME280;51056;50.330;7.914;2022-10-30T10:10:46;100999.25;;;12.95;99.66
64644;BME280;51056;50.330;7.914;2022-10-30T10:14:03;100989.84;;;12.91;100.00
64644;BME280;51056;50.330;7.914;2022-10-30T10:17:19;100989.28;;;13.02;100.00
64644;BME280;51056;50.330;7.914;2022-10-30T10:20:39;100984.25;;;13.13;100.00
64644;BME280;51056;50.330;7.914;2022-10-30T10:23:49;100982.59;;;13.12;100.00
64644;BME280;51056;50.330;7.914;2022-10-30T10:30:45;100972.66;;;13.33;100.00
64644;BME280;51056;50.330;7.914;2022-10-30T10:37:22;100961.53;;;13.60;100.00
64644;BME280;51056;50.330;7.914;2022-10-30T10:40:37;100969.56;;;13.72;100.00
64644;BME280;51056;50.330;7.914;2022-10-30T10:47:56;100958.69;;;13.93;99.92
64644;BME280;51056;50.330;7.914;2022-10-30T10:54:25;100946.97;;;14.13;99.32
64644;BME280;51056;50.330;7.914;2022-10-30T10:57:36;100941.72;;;14.13;100.00
64644;BME280;51056;50.330;7.914;2022-10-30T11:00:41;100936.56;;;14.26;100.00
64644;BME280;51056;50.330;7.914;2022-10-30T11:06:57;100929.06;;;14.34;100.00
64644;BME280;51056;50.330;7.914;2022-10-30T11:10:11;100925.88;;;14.43;99.05
64644;BME280;51056;50.330;7.914;2022-10-30T11:13:15;100927.47;;;14.46;99.92
64644;BME280;51056;50.330;7.914;2022-10-30T11:17:00;100931.66;;;14.48;100.00
64644;BME280;51056;50.330;7.914;2022-10-30T11:20:15;100919.13;;;14.53;100.00
64644;BME280;51056;50.330;7.914;2022-10-30T11:23:34;100918.72;;;14.59;100.00
64644;BME280;51056;50.330;7.914;2022-10-30T11:26:41;100921.25;;;14.61;100.00
64644;BME280;51056;50.330;7.914;2022-10-30T11:29:51;100920.59;;;14.72;100.00
64644;BME280;51056;50.330;7.914;2022-10-30T11:32:57;100914.56;;;14.84;100.00
64644;BME280;51056;50.330;7.914;2022-10-30T11:36:07;100916.38;;;14.96;100.00
64644;BME280;51056;50.330;7.914;2022-10-30T11:39:24;100907.44;;;14.99;100.00
64644;BME280;51056;50.330;7.914;2022-10-30T11:42:29;100923.88;;;15.02;99.91
64644;BME280;51056;50.330;7.914;2022-10-30T11:45:39;100913.28;;;15.04;99.23
64644;BME280;51056;50.330;7.914;2022-10-30T11:48:50;100905.69;;;15.12;100.00
64644;BME280;51056;50.330;7.914;2022-10-30T11:52:00;100901.94;;;15.16;98.26
64644;BME280;51056;50.330;7.914;2022-10-30T11:58:36;100897.66;;;15.41;98.15
64644;BME280;51056;50.330;7.914;2022-10-30T12:01:56;100887.34;;;15.50;96.09
64644;BME280;51056;50.330;7.914;2022-10-30T12:05:01;100884.75;;;15.63;96.41
64644;BME280;51056;50.330;7.914;2022-10-30T12:11:17;100879.41;;;15.77;94.69
64644;BME280;51056;50.330;7.914;2022-10-30T12:14:26;100874.22;;;15.76;94.03
64644;BME280;51056;50.330;7.914;2022-10-30T12:17:30;100867.41;;;15.86;94.45
64644;BME280;51056;50.330;7.914;2022-10-30T12:20:38;100871.72;;;15.87;95.55
64644;BME280;51056;50.330;7.914;2022-10-30T12:23:54;100873.81;;;15.95;94.22
64644;BME280;51056;50.330;7.914;2022-10-30T12:27:03;100874.91;;;15.92;93.92
64644;BME280;51056;50.330;7.914;2022-10-30T12:30:18;100863.19;;;15.96;93.53
64644;BME280;51056;50.330;7.914;2022-10-30T12:37:02;100862.75;;;16.15;93.13
64644;BME280;51056;50.330;7.914;2022-10-30T12:40:26;100856.28;;;16.19;92.45
64644;BME280;51056;50.330;7.914;2022-10-30T12:43:40;100849.53;;;16.28;93.68
64644;BME280;51056;50.330;7.914;2022-10-30T12:50:40;100852.09;;;16.54;92.61
64644;BME280;51056;50.330;7.914;2022-10-30T12:57:24;100842.03;;;16.59;93.22
64644;BME280;51056;50.330;7.914;2022-10-30T13:00:51;100840.75;;;16.64;93.25
64644;BME280;51056;50.330;7.914;2022-10-30T13:04:43;100838.84;;;16.66;93.24
64644;BME280;51056;50.330;7.914;2022-10-30T13:08:34;100833.84;;;16.50;93.13
64644;BME280;51056;50.330;7.914;2022-10-30T13:15:56;100831.75;;;16.30;93.76
64644;BME280;51056;50.330;7.914;2022-10-30T13:19:02;100833.03;;;16.37;95.53
64644;BME280;51056;50.330;7.914;2022-10-30T13:22:29;100827.53;;;16.40;94.62
64644;BME280;51056;50.330;7.914;2022-10-30T13:26:01;100828.03;;;16.45;94.19
64644;BME280;51056;50.330;7.914;2022-10-30T13:33:05;100824.84;;;16.53;93.70
64644;BME280;51056;50.330;7.914;2022-10-30T13:36:18;100829.78;;;16.58;93.52
64644;BME280;51056;50.330;7.914;2022-10-30T13:39:35;100836.47;;;16.50;93.51
64644;BME280;51056;50.330;7.914;2022-10-30T13:43:01;100832.88;;;16.51;94.04
64644;BME280;51056;50.330;7.914;2022-10-30T13:52:49;100832.16;;;16.37;95.26
64644;BME280;51056;50.330;7.914;2022-10-30T13:55:56;100833.03;;;16.37;96.03
64644;BME280;51056;50.330;7.914;2022-10-30T14:06:09;100831.81;;;16.54;96.42
64644;BME280;51056;50.330;7.914;2022-10-30T14:16:01;100833.75;;;16.39;98.88
64644;BME280;51056;50.330;7.914;2022-10-30T14:19:15;100831.41;;;16.47;97.93
64644;BME280;51056;50.330;7.914;2022-10-30T14:22:23;100825.53;;;16.44;97.34
64644;BME280;51056;50.330;7.914;2022-10-30T14:25:27;100834.16;;;16.46;96.73
64644;BME280;51056;50.330;7.914;2022-10-30T14:28:42;100830.19;;;16.40;97.17
64644;BME280;51056;50.330;7.914;2022-10-30T14:31:47;100835.56;;;16.39;98.42
64644;BME280;51056;50.330;7.914;2022-10-30T14:38:06;100837.22;;;16.40;97.57
64644;BME280;51056;50.330;7.914;2022-10-30T14:44:40;100843.16;;;16.43;97.75
64644;BME280;51056;50.330;7.914;2022-10-30T14:51:41;100832.28;;;16.35;99.72
64644;BME280;51056;50.330;7.914;2022-10-30T14:54:57;100840.66;;;16.29;98.92
64644;BME280;51056;50.330;7.914;2022-10-30T15:04:21;100843.66;;;16.12;100.00
64644;BME280;51056;50.330;7.914;2022-10-30T15:14:37;100858.88;;;15.95;100.00
64644;BME280;51056;50.330;7.914;2022-10-30T15:17:48;100852.22;;;15.90;100.00
64644;BME280;51056;50.330;7.914;2022-10-30T15:20:53;100861.81;;;15.91;100.00
64644;BME280;51056;50.330;7.914;2022-10-30T15:23:59;100866.88;;;15.81;100.00
64644;BME280;51056;50.330;7.914;2022-10-30T15:27:03;100861.25;;;15.73;100.00
64644;BME280;51056;50.330;7.914;2022-10-30T15:30:19;100867.50;;;15.72;100.00
64644;BME280;51056;50.330;7.914;2022-10-30T15:33:24;100870.72;;;15.63;100.00
64644;BME280;51056;50.330;7.914;2022-10-30T15:36:39;100871.66;;;15.49;100.00
64644;BME280;51056;50.330;7.914;2022-10-30T15:39:45;100883.13;;;15.35;100.00
64644;BME280;51056;50.330;7.914;2022-10-30T15:42:50;100875.84;;;15.26;100.00
64644;BME280;51056;50.330;7.914;2022-10-30T15:45:55;100874.53;;;15.19;100.00
64644;BME280;51056;50.330;7.914;2022-10-30T15:49:01;100877.47;;;15.14;100.00
64644;BME280;51056;50.330;7.914;2022-10-30T15:52:18;100883.06;;;15.09;100.00
64644;BME280;51056;50.330;7.914;2022-10-30T15:55:29;100881.03;;;15.00;100.00
64644;BME280;51056;50.330;7.914;2022-10-30T15:58:35;100893.19;;;14.88;100.00
64644;BME280;51056;50.330;7.914;2022-10-30T16:01:45;100902.81;;;14.75;100.00
64644;BME280;51056;50.330;7.914;2022-10-30T16:04:52;100898.13;;;14.66;100.00
64644;BME280;51056;50.330;7.914;2022-10-30T16:07:59;100908.28;;;14.72;100.00
64644;BME280;51056;50.330;7.914;2022-10-30T16:11:04;100913.53;;;14.72;100.00
64644;BME280;51056;50.330;7.914;2022-10-30T16:14:17;100917.44;;;14.52;100.00
64644;BME280;51056;50.330;7.914;2022-10-30T16:17:26;100914.19;;;14.47;100.00
64644;BME280;51056;50.330;7.914;2022-10-30T16:21:03;100926.59;;;14.45;100.00
64644;BME280;51056;50.330;7.914;2022-10-30T16:24:10;100915.22;;;14.45;100.00
64644;BME280;51056;50.330;7.914;2022-10-30T16:27:19;100915.53;;;14.26;100.00
64644;BME280;51056;50.330;7.914;2022-10-30T16:30:25;100915.34;;;14.29;100.00
64644;BME280;51056;50.330;7.914;2022-10-30T16:33:34;100922.41;;;14.14;100.00
64644;BME280;51056;50.330;7.914;2022-10-30T16:36:39;100926.06;;;14.11;100.00
64644;BME280;51056;50.330;7.914;2022-10-30T16:39:46;100923.50;;;13.95;100.00
64644;BME280;51056;50.330;7.914;2022-10-30T16:42:58;100925.38;;;13.93;100.00
64644;BME280;51056;50.330;7.914;2022-10-30T16:49:22;100928.75;;;13.95;100.00
64644;BME280;51056;50.330;7.914;2022-10-30T16:52:31;100928.28;;;13.89;100.00
64644;BME280;51056;50.330;7.914;2022-10-30T16:55:37;100933.34;;;13.92;100.00
64644;BME280;51056;50.330;7.914;2022-10-30T16:58:41;100942.91;;;13.79;100.00
64644;BME280;51056;50.330;7.914;2022-10-30T17:01:52;100942.78;;;13.66;100.00
64644;BME280;51056;50.330;7.914;2022-10-30T17:05:29;100953.84;;;13.71;100.00
64644;BME280;51056;50.330;7.914;2022-10-30T17:08:36;100966.34;;;13.67;100.00
64644;BME280;51056;50.330;7.914;2022-10-30T17:11:59;100966.53;;;13.48;100.00
64644;BME280;51056;50.330;7.914;2022-10-30T17:18:16;100978.06;;;13.46;100.00
64644;BME280;51056;50.330;7.914;2022-10-30T17:21:37;100981.22;;;13.37;100.00
64644;BME280;51056;50.330;7.914;2022-10-30T17:24:42;100989.19;;;13.35;99.82
64644;BME280;51056;50.330;7.914;2022-10-30T17:27:51;100994.63;;;13.32;100.00
64644;BME280;51056;50.330;7.914;2022-10-30T17:31:21;100998.75;;;13.36;98.99
64644;BME280;51056;50.330;7.914;2022-10-30T17:34:36;101006.56;;;13.22;98.49
64644;BME280;51056;50.330;7.914;2022-10-30T17:37:41;101003.81;;;13.23;98.23
64644;BME280;51056;50.330;7.914;2022-10-30T17:40:44;101006.56;;;13.06;98.56
64644;BME280;51056;50.330;7.914;2022-10-30T17:43:55;101019.84;;;13.19;98.12
64644;BME280;51056;50.330;7.914;2022-10-30T17:46:59;101026.72;;;13.06;98.39
64644;BME280;51056;50.330;7.914;2022-10-30T17:50:04;101031.53;;;13.13;98.17
64644;BME280;51056;50.330;7.914;2022-10-30T17:53:19;101026.03;;;13.02;97.25
64644;BME280;51056;50.330;7.914;2022-10-30T17:56:28;101036.53;;;13.02;97.31
64644;BME280;51056;50.330;7.914;2022-10-30T17:59:34;101033.91;;;13.02;97.05
64644;BME280;51056;50.330;7.914;2022-10-30T18:02:42;101041.00;;;13.00;96.32
64644;BME280;51056;50.330;7.914;2022-10-30T18:05:46;101043.09;;;12.77;96.90
64644;BME280;51056;50.330;7.914;2022-10-30T18:08:54;101049.38;;;12.91;96.64
64644;BME280;51056;50.330;7.914;2022-10-30T18:11:57;101047.34;;;12.80;96.73
64644;BME280;51056;50.330;7.914;2022-10-30T18:18:32;101052.38;;;12.67;97.49
64644;BME280;51056;50.330;7.914;2022-10-30T18:21:37;101051.69;;;12.64;97.40
64644;BME280;51056;50.330;7.914;2022-10-30T18:24:41;101055.63;;;12.55;97.04
64644;BME280;51056;50.330;7.914;2022-10-30T18:27:45;101060.78;;;12.74;96.28
64644;BME280;51056;50.330;7.914;2022-10-30T18:30:53;101064.97;;;12.61;96.18
64644;BME280;51056;50.330;7.914;2022-10-30T18:34:21;101064.03;;;12.44;96.55
64644;BME280;51056;50.330;7.914;2022-10-30T18:37:26;101066.59;;;12.46;96.66